KELO

Ely Municipal Airport

Ely, Minnesota, USA
METAR KELO 182135Z AUTO 20005KT 10SM CLR 24/15 A3001 RMK AO2
Observed Flight Rules
Aug-18 @ 21:35 UTC (19 minutes ago) Visual Flight Rules
Wind Visibility Clouds
200° at 5 knots 10 miles
  • Clear skies
Temperatures Readings
Current 24°C / 75°F
Dewpoint 15°C / 59°F
Humidity 57%
Altimeter 30.01" Hg
Pressure 1016 hPa
Elevation 443
METAR KELO 182135Z AUTO 20005KT 10SM CLR 24/15 A3001 RMK AO2
Observed Flight Rules
Aug-18 @ 21:35 UTC
(19 minutes ago)
VFR
Wind Visibility
200° at 5 knots 10 miles
Clouds
  • Clear skies
Temperature Dewpoint
24°C / 75°F 15°C / 59°F
Humidity Altimeter Pressure
57% 30.01" Hg 1016 hPa